Time;durP1;ratioP1;P1;durP2;ratioP2;P2;SDS_P1;SDS_P2;PMS_P1;PMS_P2;Temp;Humidity;BMP_temperature;BMP_pressure;BME280_temperature;BME280_humidity;BME280_pressure;Samples;Min_cycle;Max_cycle;Signal;HPM_P1;HPM_P2
2022/02/07 00:01:00;;;;;;;9.05;1.30;;;2.80;99.90;;;;;;6104189;23;20526;-93
2022/02/07 00:03:39;;;;;;;10.10;1.27;;;2.80;99.90;;;;;;6106070;23;20109;-94
2022/02/07 00:06:05;;;;;;;7.97;0.95;;;2.80;99.90;;;;;;6103802;23;20002;-93
2022/02/07 00:08:35;;;;;;;8.63;1.35;;;2.80;99.90;;;;;;6103325;23;20006;-93
2022/02/07 00:11:01;;;;;;;16.50;3.47;;;2.80;99.90;;;;;;6104305;23;20008;-92
2022/02/07 00:13:28;;;;;;;13.20;1.30;;;2.70;99.90;;;;;;6103912;23;20088;-93
2022/02/07 00:15:55;;;;;;;15.07;1.70;;;2.70;99.90;;;;;;6103462;23;20500;-92
2022/02/07 00:18:23;;;;;;;12.05;1.40;;;2.70;99.90;;;;;;6103745;23;20089;-92
2022/02/07 00:20:49;;;;;;;11.93;1.80;;;2.70;99.90;;;;;;6103909;23;20012;-93
2022/02/07 00:23:16;;;;;;;8.73;1.48;;;2.60;99.90;;;;;;6103984;23;20093;-94
2022/02/07 00:25:43;;;;;;;11.38;1.50;;;2.70;99.90;;;;;;6103994;23;20085;-93
2022/02/07 00:28:09;;;;;;;12.43;1.60;;;2.60;99.90;;;;;;6103647;23;20013;-92
2022/02/07 00:30:38;;;;;;;9.32;1.35;;;2.60;99.90;;;;;;6104153;23;20006;-92
2022/02/07 00:33:06;;;;;;;12.70;1.58;;;2.60;99.90;;;;;;6104067;23;20088;-92
2022/02/07 00:35:32;;;;;;;9.32;1.33;;;2.60;99.90;;;;;;6104336;23;20010;-93
2022/02/07 00:38:04;;;;;;;14.32;1.55;;;2.60;99.90;;;;;;6103482;23;20002;-92
2022/02/07 00:40:45;;;;;;;6.97;1.90;;;2.60;99.90;;;;;;6103847;23;20009;-92
2022/02/07 00:43:25;;;;;;;6.45;1.25;;;2.50;99.90;;;;;;6103508;23;20141;-92
2022/02/07 00:46:09;;;;;;;14.73;1.50;;;2.50;99.90;;;;;;6103776;23;20010;-92
2022/02/07 00:48:37;;;;;;;12.38;1.30;;;2.40;99.90;;;;;;6103403;23;20494;-92
2022/02/07 00:51:05;;;;;;;13.13;1.38;;;2.40;99.90;;;;;;6101932;23;20034;-92
2022/02/07 00:53:33;;;;;;;11.25;1.33;;;2.40;99.90;;;;;;6102904;23;20018;-92
2022/02/07 00:56:04;;;;;;;7.43;1.35;;;2.40;99.90;;;;;;6129234;23;20009;-93
2022/02/07 00:58:30;;;;;;;9.73;1.50;;;2.40;99.90;;;;;;6103158;23;20018;-90
2022/02/07 01:00:58;;;;;;;9.02;1.92;;;2.40;99.90;;;;;;6103319;23;20345;-91
2022/02/07 01:03:24;;;;;;;9.65;2.00;;;2.30;99.90;;;;;;6105042;23;20002;-91
2022/02/07 01:05:53;;;;;;;7.88;1.17;;;2.30;99.90;;;;;;6103051;23;20467;-91
2022/02/07 01:08:25;;;;;;;8.38;1.20;;;2.40;99.90;;;;;;6103282;23;20002;-92
2022/02/07 01:11:09;;;;;;;11.07;1.90;;;2.40;99.90;;;;;;6103460;23;20040;-92
2022/02/07 01:14:00;;;;;;;8.50;1.70;;;2.40;99.90;;;;;;6129129;23;20013;-91
2022/02/07 01:52:09;;;;;;;12.23;1.77;;;2.40;99.90;;;;;;6128537;23;20056;-92
2022/02/07 01:54:42;;;;;;;17.40;1.85;;;2.40;99.90;;;;;;6103097;23;20445;-92
2022/02/07 01:57:11;;;;;;;14.07;1.77;;;2.30;99.90;;;;;;6103870;23;20041;-93
2022/02/07 01:59:41;;;;;;;19.27;3.00;;;2.30;99.90;;;;;;6103224;23;20036;-92
2022/02/07 02:02:09;;;;;;;19.80;2.22;;;2.30;99.90;;;;;;6080037;23;20006;-93
2022/02/07 02:04:35;;;;;;;7.43;1.40;;;2.30;99.90;;;;;;6102912;23;20474;-93
2022/02/07 02:07:08;;;;;;;15.15;1.83;;;2.30;99.90;;;;;;6102208;23;20037;-93
2022/02/07 02:09:35;;;;;;;17.48;3.35;;;2.30;99.90;;;;;;6103315;23;20020;-92
2022/02/07 02:12:05;;;;;;;12.57;2.75;;;2.30;99.90;;;;;;6101045;23;20010;-93
2022/02/07 02:14:46;;;;;;;12.05;2.05;;;2.20;99.90;;;;;;6102425;23;20441;-92
2022/02/07 02:36:35;;;;;;;16.13;2.47;;;2.10;99.90;;;;;;6044592;23;20007;-91
2022/02/07 02:46:54;;;;;;;6.88;1.40;;;2.10;99.90;;;;;;6039430;23;20099;-91
2022/02/07 02:49:24;;;;;;;26.25;2.22;;;2.10;99.90;;;;;;6015235;23;20011;-92
2022/02/07 02:51:53;;;;;;;7.60;1.87;;;2.10;99.90;;;;;;6015421;23;20019;-91
2022/02/07 02:54:19;;;;;;;9.95;2.20;;;2.10;99.90;;;;;;6015200;23;20059;-92
2022/02/07 02:56:45;;;;;;;14.25;1.80;;;2.20;99.90;;;;;;6014602;23;20012;-91
2022/02/07 02:59:14;;;;;;;10.02;1.60;;;2.20;99.90;;;;;;6014630;23;20058;-92
2022/02/07 03:01:41;;;;;;;15.27;2.22;;;2.20;99.90;;;;;;6037227;23;20006;-91
2022/02/07 03:04:07;;;;;;;9.95;1.95;;;2.20;99.90;;;;;;6102516;23;20603;-93
2022/02/07 03:06:37;;;;;;;10.23;1.63;;;2.20;99.90;;;;;;6101808;23;20512;-93
2022/02/07 03:09:03;;;;;;;12.57;1.67;;;2.10;99.90;;;;;;6102219;23;20014;-91
2022/02/07 03:11:30;;;;;;;14.88;1.70;;;2.10;99.90;;;;;;6102107;23;20731;-93
2022/02/07 03:13:58;;;;;;;9.80;1.85;;;2.20;99.90;;;;;;6101526;23;20022;-90
2022/02/07 03:16:38;;;;;;;27.83;2.38;;;2.20;99.90;;;;;;6101996;23;20029;-92
2022/02/07 03:19:12;;;;;;;12.30;1.83;;;2.20;99.90;;;;;;6102363;23;20006;-92
2022/02/07 03:21:39;;;;;;;10.80;1.63;;;2.20;99.90;;;;;;6101311;23;20006;-90
2022/02/07 03:24:06;;;;;;;12.02;1.13;;;2.20;99.90;;;;;;6102215;23;20041;-92
2022/02/07 03:26:46;;;;;;;11.88;1.65;;;2.20;99.90;;;;;;6102492;23;20002;-92
2022/02/07 03:29:13;;;;;;;15.20;1.70;;;2.30;99.90;;;;;;6103019;23;20029;-92
2022/02/07 03:31:39;;;;;;;9.68;2.00;;;2.20;99.90;;;;;;6103566;23;20048;-93
2022/02/07 03:34:06;;;;;;;22.98;3.70;;;2.30;99.90;;;;;;6102480;23;20350;-93
2022/02/07 03:36:33;;;;;;;12.35;1.58;;;2.20;99.90;;;;;;6102432;23;20009;-90
2022/02/07 03:39:01;;;;;;;9.57;1.73;;;2.20;99.90;;;;;;6107434;23;20041;-91
2022/02/07 03:41:31;;;;;;;8.82;1.40;;;2.20;99.90;;;;;;6131883;23;20006;-93
2022/02/07 03:43:57;;;;;;;10.57;1.85;;;2.20;99.90;;;;;;6101744;23;20010;-91
2022/02/07 03:46:23;;;;;;;14.48;1.83;;;2.20;99.90;;;;;;6101039;23;20002;-90
2022/02/07 03:48:49;;;;;;;7.97;1.65;;;2.20;99.90;;;;;;6077956;23;20014;-91
2022/02/07 03:51:16;;;;;;;13.02;1.67;;;2.20;99.90;;;;;;6102211;23;20009;-92
2022/02/07 03:53:42;;;;;;;11.43;1.73;;;2.20;99.90;;;;;;6101770;23;20049;-93
2022/02/07 03:56:08;;;;;;;13.73;1.67;;;2.20;99.90;;;;;;6101866;23;20010;-90
2022/02/07 03:58:35;;;;;;;12.05;1.92;;;2.20;99.90;;;;;;6101971;23;20017;-91
2022/02/07 04:01:03;;;;;;;12.70;1.67;;;2.20;99.90;;;;;;6102825;23;20006;-90
2022/02/07 04:03:29;;;;;;;9.85;1.65;;;2.20;99.90;;;;;;6102522;23;20005;-91
2022/02/07 04:06:04;;;;;;;15.98;2.20;;;2.20;99.90;;;;;;6102957;23;20438;-90
2022/02/07 04:08:38;;;;;;;12.38;2.17;;;2.20;99.90;;;;;;6102803;23;20013;-91
2022/02/07 04:11:22;;;;;;;14.07;2.42;;;2.10;99.90;;;;;;6102250;23;20010;-91
2022/02/07 04:13:53;;;;;;;18.83;2.47;;;2.10;99.90;;;;;;6102125;23;20089;-90
2022/02/07 04:16:20;;;;;;;13.75;2.40;;;2.10;99.90;;;;;;6102006;23;20017;-91
2022/02/07 04:18:56;;;;;;;14.82;2.50;;;2.10;99.90;;;;;;6101877;23;20025;-91
2022/02/07 04:21:22;;;;;;;9.38;1.80;;;2.10;99.90;;;;;;6102457;23;20006;-91
2022/02/07 04:23:48;;;;;;;17.70;2.33;;;2.10;99.90;;;;;;6101433;23;20006;-91
2022/02/07 04:26:14;;;;;;;10.30;1.80;;;2.00;99.90;;;;;;6102051;23;20006;-91
2022/02/07 04:28:40;;;;;;;9.00;2.38;;;2.00;99.90;;;;;;6101665;23;20342;-91
2022/02/07 04:31:07;;;;;;;12.27;1.98;;;2.00;99.90;;;;;;6101862;23;20090;-91
2022/02/07 04:33:35;;;;;;;17.95;2.20;;;2.00;99.90;;;;;;6102093;23;20076;-91
2022/02/07 04:36:01;;;;;;;13.93;1.90;;;1.90;99.90;;;;;;6102556;23;20021;-92
2022/02/07 04:38:26;;;;;;;13.00;2.25;;;1.80;99.90;;;;;;6101832;23;20002;-92
2022/02/07 04:40:53;;;;;;;17.42;2.65;;;1.80;99.90;;;;;;6103056;23;20006;-92
2022/02/07 04:43:20;;;;;;;14.40;2.72;;;1.80;99.90;;;;;;6104017;23;20080;-91
2022/02/07 04:45:59;;;;;;;9.93;1.95;;;1.70;99.90;;;;;;6080038;23;20010;-90
2022/02/07 04:58:54;;;;;;;20.50;2.65;;;1.70;99.90;;;;;;6128567;23;20079;-91
2022/02/07 05:03:59;;;;;;;27.13;6.63;;;1.70;99.90;;;;;;6139092;23;20029;-91
2022/02/07 05:14:42;;;;;;;16.70;2.35;;;1.60;99.90;;;;;;6128817;23;20472;-90
2022/02/07 05:17:12;;;;;;;15.23;2.08;;;1.60;99.90;;;;;;6103108;23;20034;-91
2022/02/07 05:19:38;;;;;;;13.37;2.17;;;1.50;99.90;;;;;;6103323;23;20010;-90
2022/02/07 05:22:04;;;;;;;16.10;2.72;;;1.60;99.90;;;;;;6103169;23;20060;-90
2022/02/07 05:24:30;;;;;;;12.32;2.60;;;1.60;99.90;;;;;;6103106;23;20464;-90
2022/02/07 05:26:56;;;;;;;16.83;2.33;;;1.50;99.90;;;;;;6101883;23;20013;-91
2022/02/07 05:29:21;;;;;;;11.85;2.10;;;1.50;99.90;;;;;;6103187;23;20093;-92
2022/02/07 05:31:47;;;;;;;11.70;2.60;;;1.50;99.90;;;;;;6103241;23;20449;-91
2022/02/07 05:34:13;;;;;;;12.32;1.88;;;1.50;99.90;;;;;;6103753;23;20018;-92
2022/02/07 05:36:43;;;;;;;8.25;1.80;;;1.40;99.90;;;;;;6102678;23;20465;-91
2022/02/07 05:39:16;;;;;;;10.63;2.22;;;1.40;99.90;;;;;;6102068;23;20377;-91
2022/02/07 05:41:44;;;;;;;7.25;1.77;;;1.40;99.90;;;;;;6102544;23;20122;-92
2022/02/07 05:44:12;;;;;;;12.77;2.72;;;1.40;99.90;;;;;;6102982;23;20016;-91
2022/02/07 05:46:38;;;;;;;10.48;2.47;;;1.40;99.90;;;;;;6102052;23;20029;-92
2022/02/07 05:49:04;;;;;;;9.48;2.03;;;1.40;99.90;;;;;;6102743;23;20013;-92
2022/02/07 05:51:31;;;;;;;11.95;2.45;;;1.30;99.90;;;;;;6078783;23;20021;-92
2022/02/07 05:53:56;;;;;;;9.52;1.85;;;1.40;99.90;;;;;;6101226;23;20037;-91
2022/02/07 05:56:22;;;;;;;13.07;2.25;;;1.40;99.90;;;;;;6102406;23;20001;-92
2022/02/07 05:58:48;;;;;;;11.40;2.17;;;1.40;99.90;;;;;;6102889;23;20017;-91
2022/02/07 06:01:14;;;;;;;11.30;2.28;;;1.40;99.90;;;;;;6102441;23;20029;-91
2022/02/07 06:03:40;;;;;;;10.35;1.60;;;1.40;99.90;;;;;;6103236;23;20002;-91
2022/02/07 06:06:06;;;;;;;12.27;2.35;;;1.40;99.90;;;;;;6103227;23;20002;-91
2022/02/07 06:08:35;;;;;;;13.65;2.08;;;1.40;99.90;;;;;;6103209;23;20006;-91
2022/02/07 06:11:05;;;;;;;8.40;1.90;;;1.40;99.90;;;;;;6102965;23;20010;-91
2022/02/07 06:13:37;;;;;;;10.05;1.88;;;1.40;99.90;;;;;;6102036;23;20002;-92
2022/02/07 06:16:03;;;;;;;15.48;2.15;;;1.40;99.90;;;;;;6101923;23;20061;-92
2022/02/07 06:18:30;;;;;;;11.30;2.17;;;1.40;99.90;;;;;;6102038;23;19998;-91
2022/02/07 06:21:01;;;;;;;17.92;2.97;;;1.40;99.90;;;;;;6102305;23;20014;-91
2022/02/07 06:23:28;;;;;;;8.77;1.80;;;1.40;99.90;;;;;;6102125;23;20010;-92
2022/02/07 06:25:56;;;;;;;24.02;2.63;;;1.40;99.90;;;;;;6102374;23;20459;-92
2022/02/07 06:28:21;;;;;;;11.23;2.03;;;1.40;99.90;;;;;;6102028;23;20010;-91
2022/02/07 06:30:47;;;;;;;13.90;2.28;;;1.30;99.90;;;;;;6103191;23;20029;-91
2022/02/07 06:33:17;;;;;;;24.75;3.55;;;1.30;99.90;;;;;;6102158;23;20423;-91
2022/02/07 06:35:43;;;;;;;18.65;2.72;;;1.20;99.90;;;;;;6102024;23;20033;-91
2022/02/07 06:38:08;;;;;;;12.30;2.65;;;1.30;99.90;;;;;;6102051;23;20002;-91
2022/02/07 06:40:36;;;;;;;27.17;3.67;;;1.20;99.90;;;;;;6102263;23;20103;-91
2022/02/07 06:43:03;;;;;;;21.50;4.03;;;1.30;99.90;;;;;;6102732;23;20006;-91
2022/02/07 06:45:29;;;;;;;14.80;2.88;;;1.30;99.90;;;;;;6102057;23;20002;-92
2022/02/07 06:47:54;;;;;;;22.85;4.55;;;1.40;99.90;;;;;;6102605;23;20508;-92
2022/02/07 06:50:20;;;;;;;21.50;4.13;;;1.40;99.90;;;;;;6102505;23;20010;-92
2022/02/07 06:52:48;;;;;;;23.30;3.58;;;1.50;99.90;;;;;;6102329;23;20001;-91
2022/02/07 06:55:14;;;;;;;19.80;3.33;;;1.60;99.90;;;;;;6103071;23;20018;-91
2022/02/07 06:57:40;;;;;;;49.08;4.97;;;1.60;99.90;;;;;;6101570;23;20014;-91
2022/02/07 07:00:09;;;;;;;23.65;3.47;;;1.70;99.90;;;;;;6101851;23;20029;-91
2022/02/07 07:02:36;;;;;;;21.17;3.60;;;1.70;99.90;;;;;;6101652;23;20002;-91
2022/02/07 07:05:09;;;;;;;29.05;4.57;;;1.70;99.90;;;;;;6101235;23;20032;-92
2022/02/07 07:07:35;;;;;;;12.82;2.75;;;1.70;99.90;;;;;;6101400;23;20040;-91
2022/02/07 07:10:04;;;;;;;17.08;3.40;;;1.70;99.90;;;;;;6101643;23;20002;-91
2022/02/07 07:12:31;;;;;;;16.70;3.47;;;1.60;99.90;;;;;;6101681;23;20014;-91
2022/02/07 07:17:45;;;;;;;12.23;3.00;;;1.60;99.90;;;;;;6129612;23;20033;-91
2022/02/07 07:20:11;;;;;;;15.48;3.60;;;1.60;99.90;;;;;;6128359;23;20077;-91
2022/02/07 07:22:37;;;;;;;13.43;2.90;;;1.60;99.90;;;;;;6101426;23;20002;-92
2022/02/07 07:25:05;;;;;;;17.17;4.28;;;1.60;99.90;;;;;;6101162;23;20020;-94
2022/02/07 07:27:44;;;;;;;16.13;3.85;;;1.50;99.90;;;;;;6102136;23;20337;-91
2022/02/07 07:30:12;;;;;;;23.63;4.47;;;1.50;99.90;;;;;;6101480;23;20102;-91
2022/02/07 07:32:38;;;;;;;24.90;4.25;;;1.50;99.90;;;;;;6128334;23;20002;-91
2022/02/07 07:35:05;;;;;;;12.80;3.40;;;1.50;99.90;;;;;;6101999;23;20041;-92
2022/02/07 07:37:32;;;;;;;28.90;4.50;;;1.60;99.90;;;;;;6101778;23;20066;-91
2022/02/07 07:39:58;;;;;;;14.25;3.75;;;1.50;99.90;;;;;;6102475;23;20009;-91
2022/02/07 07:42:23;;;;;;;13.73;3.70;;;1.60;99.90;;;;;;6106047;23;20009;-92
2022/02/07 07:44:52;;;;;;;33.00;6.32;;;1.50;99.90;;;;;;6101894;23;20013;-91
2022/02/07 07:47:25;;;;;;;25.00;5.18;;;1.50;99.90;;;;;;6102100;23;20077;-93
2022/02/07 07:50:04;;;;;;;21.42;4.53;;;1.60;99.90;;;;;;6100217;23;20006;-92
2022/02/07 07:52:46;;;;;;;29.02;6.00;;;1.60;99.90;;;;;;6098440;23;20014;-92
2022/02/07 08:03:14;;;;;;;23.80;5.95;;;1.70;99.90;;;;;;6125919;23;20029;-91
2022/02/07 08:05:50;;;;;;;22.83;5.30;;;1.80;99.90;;;;;;6100805;23;20085;-91
2022/02/07 08:08:27;;;;;;;39.03;7.05;;;1.80;99.90;;;;;;6100233;23;20005;-92
2022/02/07 08:11:06;;;;;;;19.65;4.78;;;1.80;99.90;;;;;;6101760;23;20013;-91
2022/02/07 08:13:33;;;;;;;36.75;5.25;;;1.90;99.90;;;;;;6101514;23;20092;-91
2022/02/07 08:15:59;;;;;;;18.15;5.65;;;1.90;99.90;;;;;;6102299;23;20351;-92
2022/02/07 08:18:28;;;;;;;27.65;5.50;;;1.90;99.90;;;;;;6103541;23;20013;-92
2022/02/07 08:20:54;;;;;;;14.77;3.75;;;2.00;99.90;;;;;;6103526;23;20006;-92
2022/02/07 08:23:21;;;;;;;19.55;5.72;;;2.00;99.90;;;;;;6103659;23;20040;-92
2022/02/07 08:25:49;;;;;;;12.95;3.70;;;2.00;99.90;;;;;;6103015;23;20006;-91
2022/02/07 08:28:15;;;;;;;23.55;5.35;;;2.10;99.90;;;;;;6103211;23;20017;-93
2022/02/07 08:30:42;;;;;;;22.63;5.70;;;2.10;99.90;;;;;;6079153;23;20434;-91
2022/02/07 08:33:08;;;;;;;14.10;3.70;;;2.10;99.90;;;;;;6103432;23;20010;-92
2022/02/07 08:35:34;;;;;;;16.40;4.10;;;2.10;99.90;;;;;;6079826;23;20425;-92
2022/02/07 08:38:00;;;;;;;21.63;7.10;;;2.20;99.90;;;;;;6103581;23;20012;-91
2022/02/07 08:40:29;;;;;;;30.60;7.05;;;2.20;99.90;;;;;;6103035;23;20500;-92
2022/02/07 08:42:58;;;;;;;33.58;7.63;;;2.30;99.90;;;;;;6103697;23;20013;-92
2022/02/07 08:45:25;;;;;;;18.88;4.50;;;2.30;99.90;;;;;;6129660;23;20006;-92
2022/02/07 08:47:56;;;;;;;16.90;5.47;;;2.40;99.90;;;;;;6103262;23;20020;-92
2022/02/07 08:50:27;;;;;;;23.42;5.85;;;2.40;99.90;;;;;;6101243;23;20020;-92
2022/02/07 08:52:57;;;;;;;17.23;5.30;;;2.40;99.90;;;;;;6103372;23;20021;-92
2022/02/07 08:55:35;;;;;;;20.40;6.85;;;2.50;99.90;;;;;;6079794;23;20014;-91
2022/02/07 08:58:09;;;;;;;24.20;8.50;;;2.50;99.90;;;;;;6103066;23;20528;-92
2022/02/07 09:05:41;;;;;;;39.65;11.02;;;2.70;99.90;;;;;;6141067;23;20006;-90
2022/02/07 09:08:22;;;;;;;33.88;12.15;;;2.70;99.90;;;;;;6105003;23;20002;-91
2022/02/07 09:10:49;;;;;;;38.78;10.85;;;2.80;99.90;;;;;;6103238;23;20002;-89
2022/02/07 09:13:17;;;;;;;28.30;10.45;;;2.80;99.90;;;;;;6102342;23;20002;-90
2022/02/07 09:15:55;;;;;;;28.85;8.82;;;2.90;99.90;;;;;;6102330;23;20013;-89
2022/02/07 09:18:21;;;;;;;25.88;8.73;;;3.00;99.90;;;;;;6102236;23;20438;-91
2022/02/07 09:20:47;;;;;;;27.17;8.57;;;3.00;99.90;;;;;;6102314;23;20021;-90
2022/02/07 09:23:13;;;;;;;37.22;9.05;;;3.10;99.90;;;;;;6102201;23;20006;-90
2022/02/07 09:25:39;;;;;;;33.03;8.38;;;3.20;99.90;;;;;;6102429;23;20456;-89
2022/02/07 09:28:05;;;;;;;29.60;6.65;;;3.30;99.90;;;;;;6102168;23;20329;-90
2022/02/07 09:30:31;;;;;;;29.33;6.97;;;3.40;99.90;;;;;;6102541;23;20018;-90
2022/02/07 09:32:57;;;;;;;20.10;6.70;;;3.50;99.90;;;;;;6102071;23;20006;-90
2022/02/07 09:35:23;;;;;;;17.63;6.13;;;3.60;99.90;;;;;;6102527;23;20022;-91
2022/02/07 09:37:49;;;;;;;19.52;4.53;;;3.70;99.90;;;;;;6103432;23;20013;-90
2022/02/07 09:40:15;;;;;;;17.50;4.30;;;3.80;99.90;;;;;;6102573;23;20080;-91
2022/02/07 09:42:47;;;;;;;19.85;3.63;;;4.00;99.90;;;;;;6102376;23;20005;-91
2022/02/07 09:45:19;;;;;;;22.10;3.53;;;4.20;99.90;;;;;;6102182;23;20029;-91
2022/02/07 09:47:46;;;;;;;14.45;3.25;;;4.40;99.90;;;;;;6079498;23;20010;-91
2022/02/07 09:50:12;;;;;;;11.50;3.85;;;4.60;99.90;;;;;;6102140;23;20014;-92
2022/02/07 09:52:38;;;;;;;10.68;3.50;;;4.70;99.90;;;;;;6102458;23;20014;-92
2022/02/07 09:55:08;;;;;;;18.85;3.63;;;4.90;99.90;;;;;;6102083;23;20101;-91
2022/02/07 10:01:00;;;;;;;16.40;3.58;;;5.40;99.90;;;;;;6120317;23;20029;-92
2022/02/07 10:03:35;;;;;;;20.73;4.10;;;5.70;99.90;;;;;;6131966;23;20456;-92
2022/02/07 10:06:16;;;;;;;14.80;3.55;;;6.00;99.90;;;;;;6131217;23;20491;-93
2022/02/07 10:09:08;;;;;;;;;;;6.30;99.90;;;;;;6131580;23;20005;-92
2022/02/07 10:11:53;;;;;;;12.48;3.67;;;6.60;99.90;;;;;;6135315;23;19908;-93
2022/02/07 10:14:24;;;;;;;18.52;3.15;;;6.80;99.90;;;;;;6134743;23;20510;-93
2022/02/07 10:17:09;;;;;;;;;;;6.90;99.90;;;;;;6134499;23;20013;-93
2022/02/07 10:19:59;;;;;;;15.93;2.50;;;7.00;99.90;;;;;;6132363;23;19904;-94
2022/02/07 10:23:07;;;;;;;12.45;2.33;;;7.00;99.90;;;;;;6131753;23;20013;-92
2022/02/07 10:41:20;;;;;;;16.83;2.67;;;7.80;99.90;;;;;;6096149;23;20034;-94
2022/02/07 10:43:57;;;;;;;12.00;2.60;;;7.90;99.90;;;;;;6094774;23;20010;-94
2022/02/07 10:46:31;;;;;;;14.48;2.35;;;8.00;99.90;;;;;;6072303;23;20006;-93
2022/02/07 10:48:57;;;;;;;7.57;2.17;;;8.20;99.90;;;;;;6071769;23;20008;-93
2022/02/07 10:51:27;;;;;;;12.27;2.17;;;8.30;99.90;;;;;;6072060;23;20093;-93
2022/02/07 10:53:54;;;;;;;;;;;8.40;99.90;;;;;;6073606;23;20494;-92
2022/02/07 10:56:35;;;;;;;18.20;3.70;;;8.40;99.90;;;;;;6072124;23;19940;-92
2022/02/07 10:59:06;;;;;;;10.52;2.10;;;8.40;99.90;;;;;;6070702;23;20015;-92
2022/02/07 11:04:06;;;;;;;15.50;2.33;;;8.40;99.90;;;;;;6095200;23;20419;-91
2022/02/07 11:06:34;;;;;;;15.20;2.30;;;8.50;99.90;;;;;;6070735;23;20251;-91
2022/02/07 11:27:50;;;;;;;13.48;2.35;;;9.80;99.90;;;;;;6155808;23;20045;-91
2022/02/07 11:30:19;;;;;;;17.88;2.83;;;9.90;99.90;;;;;;6107713;23;20020;-93
2022/02/07 11:32:46;;;;;;;14.73;2.83;;;10.20;99.90;;;;;;6130763;23;20495;-92
2022/02/07 11:35:32;;;;;;;11.48;2.38;;;10.40;99.90;;;;;;6130616;23;20480;-93
2022/02/07 11:38:04;;;;;;;14.85;2.92;;;10.60;99.90;;;;;;6131332;23;19997;-92
2022/02/07 11:40:37;;;;;;;9.95;2.30;;;10.80;99.60;;;;;;6131524;23;20005;-92
2022/02/07 11:43:29;;;;;;;14.32;2.83;;;11.00;97.40;;;;;;6131469;23;20029;-93
2022/02/07 11:46:09;;;;;;;27.58;2.70;;;11.10;97.40;;;;;;6131104;23;20014;-93
2022/02/07 11:48:52;;;;;;;17.15;3.15;;;11.20;96.40;;;;;;6130892;23;20016;-93
2022/02/07 11:51:33;;;;;;;13.95;2.70;;;11.30;95.80;;;;;;6132498;23;20009;-92
2022/02/07 11:54:05;;;;;;;14.57;2.28;;;11.50;95.30;;;;;;6132485;23;20005;-94
2022/02/07 11:56:55;;;;;;;12.07;2.40;;;11.60;95.10;;;;;;6108929;23;20009;-92
2022/02/07 12:01:59;;;;;;;14.07;2.75;;;11.90;94.20;;;;;;6159756;23;20017;-92
2022/02/07 12:04:34;;;;;;;14.35;2.65;;;12.00;93.80;;;;;;6133293;23;20073;-92
2022/02/07 12:07:26;;;;;;;21.73;3.28;;;12.20;94.00;;;;;;6132870;23;20330;-91
2022/02/07 12:10:15;;;;;;;6.25;1.63;;;12.30;93.50;;;;;;6133374;23;20018;-92
2022/02/07 12:12:49;;;;;;;12.60;2.15;;;12.30;92.30;;;;;;6131154;23;20013;-94
2022/02/07 12:15:37;;;;;;;12.95;2.63;;;12.10;92.20;;;;;;6136911;23;20025;-95
2022/02/07 12:18:22;;;;;;;10.30;1.85;;;11.90;92.60;;;;;;6159744;23;20005;-95
2022/02/07 12:21:25;;;;;;;12.95;2.08;;;11.80;93.30;;;;;;6159719;23;20048;-94
2022/02/07 12:24:05;;;;;;;10.85;2.00;;;11.70;93.90;;;;;;6161802;23;20057;-93
2022/02/07 12:26:46;;;;;;;13.90;2.55;;;11.40;94.70;;;;;;6183890;23;20065;-93
2022/02/07 12:32:31;;;;;;;9.32;2.05;;;11.30;96.50;;;;;;6121824;23;20014;-93
2022/02/07 12:35:01;;;;;;;8.18;1.52;;;11.20;97.40;;;;;;6124680;23;19995;-93
2022/02/07 12:37:34;;;;;;;10.20;2.05;;;11.00;98.10;;;;;;6125071;23;19997;-94
2022/02/07 13:26:34;;;;;;;4.90;1.30;;;8.50;99.90;;;;;;6160121;23;20037;-95
2022/02/07 13:33:43;;;;;;;;;;;;;;;;;;;;;
2022/02/07 13:55:51;;;;;;;7.90;1.60;;;8.20;99.90;;;;;;6175262;23;20024;-96
2022/02/07 14:55:09;;;;;;;12.10;2.30;;;10.50;99.90;;;;;;6149414;23;20018;-96
2022/02/07 14:57:36;;;;;;;6.95;1.85;;;10.30;99.90;;;;;;6159021;23;19994;-96
2022/02/07 15:00:08;;;;;;;7.78;2.60;;;10.10;99.90;;;;;;6159426;23;20000;-95
2022/02/07 15:30:40;;;;;;;6.00;2.38;;;9.20;99.90;;;;;;6144138;23;20013;-95
2022/02/07 15:33:14;;;;;;;9.48;2.30;;;9.10;99.90;;;;;;6125127;23;19998;-93
2022/02/07 15:35:46;;;;;;;8.65;1.77;;;9.10;99.90;;;;;;6122954;23;20477;-96
2022/02/07 15:38:36;;;;;;;9.13;1.70;;;9.10;99.90;;;;;;6126563;23;19996;-95
2022/02/07 15:41:07;;;;;;;10.73;2.33;;;9.00;99.90;;;;;;6122410;23;20009;-96
2022/02/07 15:43:39;;;;;;;7.47;1.80;;;9.00;99.90;;;;;;6125945;23;20009;-96
2022/02/07 15:46:05;;;;;;;13.05;3.70;;;9.00;99.90;;;;;;6126950;23;20017;-95
2022/02/07 15:48:33;;;;;;;10.45;3.22;;;9.00;99.90;;;;;;6126600;23;19998;-95
2022/02/07 15:51:02;;;;;;;12.10;3.28;;;9.00;99.90;;;;;;6126985;23;20065;-95
2022/02/07 15:53:30;;;;;;;9.00;2.67;;;9.10;99.90;;;;;;6127384;23;19998;-94
2022/02/07 15:55:59;;;;;;;9.50;2.17;;;9.10;99.90;;;;;;6126771;23;20034;-95
2022/02/07 15:58:53;;;;;;;5.53;1.70;;;9.10;99.90;;;;;;6126686;23;20002;-94
2022/02/07 16:01:28;;;;;;;7.47;2.28;;;9.10;99.90;;;;;;6127231;23;20002;-93
2022/02/07 16:03:54;;;;;;;6.15;1.80;;;9.10;99.90;;;;;;6125720;23;20539;-95
2022/02/07 16:06:20;;;;;;;5.95;2.33;;;9.10;99.90;;;;;;6117280;23;20013;-94
2022/02/07 16:08:46;;;;;;;4.75;1.52;;;9.10;99.90;;;;;;6117042;23;20020;-95
2022/02/07 16:11:14;;;;;;;6.95;2.88;;;9.10;99.90;;;;;;6123012;23;20010;-95
2022/02/07 16:13:46;;;;;;;5.70;1.90;;;9.10;99.90;;;;;;6115691;23;20003;-95
2022/02/07 16:16:12;;;;;;;7.20;2.22;;;9.10;99.90;;;;;;6119443;23;20053;-95
2022/02/07 16:18:42;;;;;;;7.90;2.00;;;9.10;99.90;;;;;;6149607;23;19990;-94
2022/02/07 16:21:13;;;;;;;6.25;2.03;;;9.10;99.90;;;;;;6121821;23;20018;-95
2022/02/07 16:23:48;;;;;;;4.88;2.13;;;9.10;99.90;;;;;;6125367;23;20010;-95
2022/02/07 16:26:19;;;;;;;2.35;1.77;;;9.20;99.90;;;;;;6123315;23;19998;-92
2022/02/07 16:28:45;;;;;;;;;;;9.20;99.90;;;;;;6127129;23;20065;-94
2022/02/07 16:31:31;;;;;;;4.15;1.70;;;9.10;99.90;;;;;;6126817;23;19893;-95
2022/02/07 16:33:57;;;;;;;4.47;1.67;;;9.10;99.90;;;;;;6116793;23;20018;-95
2022/02/07 16:36:23;;;;;;;4.68;1.55;;;9.00;99.90;;;;;;6103381;23;20009;-94
2022/02/07 16:38:56;;;;;;;2.85;1.70;;;9.00;99.90;;;;;;6128559;23;19986;-94
2022/02/07 16:41:25;;;;;;;4.68;1.90;;;9.00;99.90;;;;;;6128855;23;20006;-95
2022/02/07 16:43:51;;;;;;;7.50;2.20;;;9.00;99.90;;;;;;6128357;23;20009;-94
2022/02/07 16:46:37;;;;;;;6.55;2.05;;;8.90;99.90;;;;;;6128596;23;19990;-95
2022/02/07 16:49:12;;;;;;;7.13;2.22;;;8.90;99.90;;;;;;6128760;23;20001;-96
2022/02/07 16:51:40;;;;;;;4.82;2.42;;;8.90;99.90;;;;;;6129100;23;19994;-94
2022/02/07 16:54:06;;;;;;;5.72;2.75;;;8.90;99.90;;;;;;6128929;23;20013;-93
2022/02/07 16:56:36;;;;;;;5.63;3.10;;;8.80;99.90;;;;;;6128327;23;20006;-94
2022/02/07 16:59:06;;;;;;;4.00;2.90;;;8.80;99.90;;;;;;6127784;23;20053;-95
2022/02/07 17:01:35;;;;;;;;;;;8.80;99.90;;;;;;6123670;23;20464;-95
2022/02/07 17:04:03;;;;;;;4.43;2.35;;;8.80;99.90;;;;;;6128264;23;19960;-95
2022/02/07 17:06:35;;;;;;;3.30;2.08;;;8.80;99.90;;;;;;6127965;23;20018;-94
2022/02/07 17:09:01;;;;;;;6.55;3.85;;;8.80;99.90;;;;;;6128270;23;20013;-93
2022/02/07 17:11:27;;;;;;;2.28;2.08;;;8.90;99.90;;;;;;6128150;23;19994;-94
2022/02/07 17:13:53;;;;;;;4.07;2.22;;;9.00;99.90;;;;;;6126962;23;20018;-94
2022/02/07 17:16:40;;;;;;;5.18;2.30;;;9.00;99.90;;;;;;6128371;23;20001;-94
2022/02/07 17:19:20;;;;;;;3.65;2.50;;;9.00;99.90;;;;;;6118158;23;19994;-95
2022/02/07 17:21:48;;;;;;;2.75;2.10;;;9.00;99.90;;;;;;6129019;23;20061;-94
2022/02/07 17:24:19;;;;;;;2.78;2.45;;;9.00;99.90;;;;;;6154582;23;20012;-94
2022/02/07 17:26:47;;;;;;;5.03;3.67;;;9.00;99.90;;;;;;6129303;23;20005;-93
2022/02/07 17:29:19;;;;;;;4.82;4.22;;;9.00;99.90;;;;;;6129177;23;20010;-94
2022/02/07 17:31:45;;;;;;;6.28;4.88;;;9.00;99.90;;;;;;6129440;23;20026;-93
2022/02/07 17:34:12;;;;;;;9.45;5.45;;;9.00;99.90;;;;;;6154257;23;20002;-93
2022/02/07 17:36:37;;;;;;;6.85;4.05;;;9.00;99.90;;;;;;6129289;23;19998;-93
2022/02/07 17:39:06;;;;;;;6.47;3.67;;;8.90;99.90;;;;;;6105437;23;20001;-95
2022/02/07 17:41:34;;;;;;;4.60;3.40;;;8.90;99.90;;;;;;6129436;23;20018;-93
2022/02/07 17:44:03;;;;;;;5.75;4.18;;;9.00;99.90;;;;;;6104533;23;20036;-93
2022/02/07 17:46:40;;;;;;;4.60;3.03;;;8.90;99.90;;;;;;6152621;23;20010;-96
2022/02/07 17:49:19;;;;;;;3.70;2.78;;;9.00;99.90;;;;;;6152302;23;20005;-96
2022/02/07 17:51:47;;;;;;;6.60;3.33;;;9.00;99.90;;;;;;6128695;23;19998;-95
2022/02/07 17:57:24;;;;;;;;;;;;;;;;;;;;;
2022/02/07 18:02:29;;;;;;;2.80;1.60;;;9.00;99.90;;;;;;6124791;23;20126;-93
2022/02/07 18:04:56;;;;;;;3.97;2.00;;;9.10;99.90;;;;;;6096101;23;20411;-93
2022/02/07 18:07:23;;;;;;;3.22;2.05;;;9.10;99.90;;;;;;6082804;23;20002;-94
2022/02/07 18:09:49;;;;;;;3.17;2.20;;;9.10;99.90;;;;;;6078237;23;20021;-93
2022/02/07 18:12:15;;;;;;;2.75;1.95;;;9.10;99.90;;;;;;6073304;23;20002;-94
2022/02/07 18:14:40;;;;;;;3.85;1.05;;;9.20;99.90;;;;;;6098962;23;20017;-95
2022/02/07 18:17:08;;;;;;;1.58;1.33;;;9.20;99.90;;;;;;6072461;23;20493;-94